sensor_id;sensor_type;location;lat;lon;timestamp;pressure;altitude;pressure_sealevel;temperature;humidity
48652;BME280;34442;52.362;-1.302;2023-04-08T00:02:19;101020.78;;;8.57;100.00
48652;BME280;34442;52.362;-1.302;2023-04-08T00:04:44;101013.38;;;8.59;100.00
48652;BME280;34442;52.362;-1.302;2023-04-08T00:07:10;101016.59;;;8.54;100.00
48652;BME280;34442;52.362;-1.302;2023-04-08T00:09:35;101020.59;;;8.58;100.00
48652;BME280;34442;52.362;-1.302;2023-04-08T00:12:01;101015.59;;;8.55;100.00
48652;BME280;34442;52.362;-1.302;2023-04-08T00:14:26;101018.25;;;8.55;100.00
48652;BME280;34442;52.362;-1.302;2023-04-08T00:16:52;101014.59;;;8.56;100.00
48652;BME280;34442;52.362;-1.302;2023-04-08T00:19:17;101013.22;;;8.60;100.00
48652;BME280;34442;52.362;-1.302;2023-04-08T00:21:42;101023.28;;;8.58;100.00
48652;BME280;34442;52.362;-1.302;2023-04-08T00:24:08;101021.97;;;8.54;100.00
48652;BME280;34442;52.362;-1.302;2023-04-08T00:26:33;101018.75;;;8.59;100.00
48652;BME280;34442;52.362;-1.302;2023-04-08T00:28:59;101016.06;;;8.59;100.00
48652;BME280;34442;52.362;-1.302;2023-04-08T00:31:24;101024.78;;;8.61;100.00
48652;BME280;34442;52.362;-1.302;2023-04-08T00:33:50;101015.59;;;8.55;100.00
48652;BME280;34442;52.362;-1.302;2023-04-08T00:36:16;101015.59;;;8.55;100.00
48652;BME280;34442;52.362;-1.302;2023-04-08T00:38:41;101017.66;;;8.45;100.00
48652;BME280;34442;52.362;-1.302;2023-04-08T00:41:07;101014.69;;;8.40;100.00
48652;BME280;34442;52.362;-1.302;2023-04-08T00:43:32;101014.03;;;8.38;100.00
48652;BME280;34442;52.362;-1.302;2023-04-08T00:45:58;101016.56;;;8.31;100.00
48652;BME280;34442;52.362;-1.302;2023-04-08T00:48:23;101013.22;;;8.29;100.00
48652;BME280;34442;52.362;-1.302;2023-04-08T00:50:49;101008.53;;;8.31;100.00
48652;BME280;34442;52.362;-1.302;2023-04-08T00:53:17;101010.31;;;8.39;100.00
48652;BME280;34442;52.362;-1.302;2023-04-08T00:55:43;101008.31;;;8.41;100.00
48652;BME280;34442;52.362;-1.302;2023-04-08T00:58:08;101013.88;;;8.39;100.00
48652;BME280;34442;52.362;-1.302;2023-04-08T01:00:35;101016.34;;;8.41;100.00
48652;BME280;34442;52.362;-1.302;2023-04-08T01:03:46;101022.06;;;8.38;100.00
48652;BME280;34442;52.362;-1.302;2023-04-08T01:06:21;101015.88;;;8.29;100.00
48652;BME280;34442;52.362;-1.302;2023-04-08T01:08:50;101016.22;;;8.26;100.00
48652;BME280;34442;52.362;-1.302;2023-04-08T01:11:16;101019.94;;;8.25;100.00
48652;BME280;34442;52.362;-1.302;2023-04-08T01:13:43;101013.25;;;8.21;100.00
48652;BME280;34442;52.362;-1.302;2023-04-08T01:16:15;101008.09;;;8.19;100.00
48652;BME280;34442;52.362;-1.302;2023-04-08T01:18:42;101022.00;;;8.15;100.00
48652;BME280;34442;52.362;-1.302;2023-04-08T01:21:10;101021.31;;;8.13;100.00
48652;BME280;34442;52.362;-1.302;2023-04-08T01:23:50;101016.47;;;8.16;100.00
48652;BME280;34442;52.362;-1.302;2023-04-08T01:26:25;101016.28;;;8.18;100.00
48652;BME280;34442;52.362;-1.302;2023-04-08T01:28:52;101013.59;;;8.18;100.00
48652;BME280;34442;52.362;-1.302;2023-04-08T01:31:19;101010.91;;;8.18;100.00
48652;BME280;34442;52.362;-1.302;2023-04-08T01:33:46;101005.56;;;8.18;100.00
48652;BME280;34442;52.362;-1.302;2023-04-08T01:36:13;101014.78;;;8.15;100.00
48652;BME280;34442;52.362;-1.302;2023-04-08T01:38:39;101015.66;;;8.08;100.00
48652;BME280;34442;52.362;-1.302;2023-04-08T01:41:08;101017.81;;;8.12;100.00
48652;BME280;34442;52.362;-1.302;2023-04-08T01:43:35;101009.28;;;8.09;100.00
48652;BME280;34442;52.362;-1.302;2023-04-08T01:46:04;101017.19;;;8.02;100.00
48652;BME280;34442;52.362;-1.302;2023-04-08T01:48:31;101019.06;;;7.93;100.00
48652;BME280;34442;52.362;-1.302;2023-04-08T01:50:57;101016.38;;;7.93;100.00
48652;BME280;34442;52.362;-1.302;2023-04-08T01:53:24;101020.41;;;7.89;100.00
48652;BME280;34442;52.362;-1.302;2023-04-08T01:55:54;101025.47;;;7.84;100.00
48652;BME280;34442;52.362;-1.302;2023-04-08T01:58:21;101019.91;;;7.86;100.00
48652;BME280;34442;52.362;-1.302;2023-04-08T02:00:47;101022.13;;;7.82;100.00
48652;BME280;34442;52.362;-1.302;2023-04-08T02:03:16;101025.34;;;7.78;100.00
48652;BME280;34442;52.362;-1.302;2023-04-08T02:05:42;101022.81;;;7.76;100.00
48652;BME280;34442;52.362;-1.302;2023-04-08T02:08:08;101029.81;;;7.77;100.00
48652;BME280;34442;52.362;-1.302;2023-04-08T02:10:33;101027.34;;;7.76;100.00
48652;BME280;34442;52.362;-1.302;2023-04-08T02:12:59;101034.88;;;7.72;100.00
48652;BME280;34442;52.362;-1.302;2023-04-08T02:15:26;101036.41;;;7.66;100.00
48652;BME280;34442;52.362;-1.302;2023-04-08T02:17:59;101037.41;;;7.65;100.00
48652;BME280;34442;52.362;-1.302;2023-04-08T02:20:42;101039.06;;;7.66;100.00
48652;BME280;34442;52.362;-1.302;2023-04-08T02:23:13;101035.06;;;7.62;100.00
48652;BME280;34442;52.362;-1.302;2023-04-08T02:25:42;101033.75;;;7.58;100.00
48652;BME280;34442;52.362;-1.302;2023-04-08T02:28:10;101030.25;;;7.58;100.00
48652;BME280;34442;52.362;-1.302;2023-04-08T02:30:43;101027.69;;;7.64;100.00
48652;BME280;34442;52.362;-1.302;2023-04-08T02:33:11;101036.25;;;7.60;100.00
48652;BME280;34442;52.362;-1.302;2023-04-08T02:35:39;101037.09;;;7.52;100.00
48652;BME280;34442;52.362;-1.302;2023-04-08T02:38:05;101035.59;;;7.50;100.00
48652;BME280;34442;52.362;-1.302;2023-04-08T02:40:32;101038.94;;;7.43;100.00
48652;BME280;34442;52.362;-1.302;2023-04-08T02:42:58;101035.78;;;7.40;100.00
48652;BME280;34442;52.362;-1.302;2023-04-08T02:45:29;101033.59;;;7.35;100.00
48652;BME280;34442;52.362;-1.302;2023-04-08T02:47:55;101042.97;;;7.31;100.00
48652;BME280;34442;52.362;-1.302;2023-04-08T02:50:21;101044.63;;;7.24;100.00
48652;BME280;34442;52.362;-1.302;2023-04-08T02:52:46;101044.69;;;7.16;100.00
48652;BME280;34442;52.362;-1.302;2023-04-08T02:55:12;101053.03;;;7.13;100.00
48652;BME280;34442;52.362;-1.302;2023-04-08T02:57:41;101054.50;;;7.15;100.00
48652;BME280;34442;52.362;-1.302;2023-04-08T03:00:07;101049.16;;;7.07;100.00
48652;BME280;34442;52.362;-1.302;2023-04-08T03:02:33;101047.34;;;7.16;100.00
48652;BME280;34442;52.362;-1.302;2023-04-08T03:04:59;101053.16;;;7.28;100.00
48652;BME280;34442;52.362;-1.302;2023-04-08T03:07:24;101053.66;;;7.31;100.00
48652;BME280;34442;52.362;-1.302;2023-04-08T03:09:50;101056.66;;;7.28;100.00
48652;BME280;34442;52.362;-1.302;2023-04-08T03:12:16;101055.34;;;7.32;100.00
48652;BME280;34442;52.362;-1.302;2023-04-08T03:14:41;101056.34;;;7.31;100.00
48652;BME280;34442;52.362;-1.302;2023-04-08T03:17:07;101051.50;;;7.27;100.00
48652;BME280;34442;52.362;-1.302;2023-04-08T03:19:32;101058.19;;;7.22;100.00
48652;BME280;34442;52.362;-1.302;2023-04-08T03:21:58;101056.22;;;7.16;100.00
48652;BME280;34442;52.362;-1.302;2023-04-08T03:24:23;101066.72;;;7.10;100.00
48652;BME280;34442;52.362;-1.302;2023-04-08T03:26:49;101061.38;;;6.93;100.00
48652;BME280;34442;52.362;-1.302;2023-04-08T03:29:15;101059.19;;;6.81;100.00
48652;BME280;34442;52.362;-1.302;2023-04-08T03:31:40;101069.34;;;6.69;100.00
48652;BME280;34442;52.362;-1.302;2023-04-08T03:34:06;101073.84;;;6.60;100.00
48652;BME280;34442;52.362;-1.302;2023-04-08T03:36:31;101074.00;;;6.59;100.00
48652;BME280;34442;52.362;-1.302;2023-04-08T03:38:56;101075.22;;;6.72;100.00
48652;BME280;34442;52.362;-1.302;2023-04-08T03:41:22;101077.38;;;6.77;100.00
48652;BME280;34442;52.362;-1.302;2023-04-08T03:43:47;101078.53;;;6.75;100.00
48652;BME280;34442;52.362;-1.302;2023-04-08T03:46:13;101084.53;;;6.60;100.00
48652;BME280;34442;52.362;-1.302;2023-04-08T03:48:38;101076.81;;;6.49;100.00
48652;BME280;34442;52.362;-1.302;2023-04-08T03:51:04;101083.34;;;6.46;100.00
48652;BME280;34442;52.362;-1.302;2023-04-08T03:53:29;101080.97;;;6.43;100.00
48652;BME280;34442;52.362;-1.302;2023-04-08T03:55:55;101077.75;;;6.32;100.00
48652;BME280;34442;52.362;-1.302;2023-04-08T03:58:23;101086.75;;;6.22;100.00
48652;BME280;34442;52.362;-1.302;2023-04-08T04:00:49;101088.91;;;6.19;100.00
48652;BME280;34442;52.362;-1.302;2023-04-08T04:03:14;101086.03;;;6.12;100.00
48652;BME280;34442;52.362;-1.302;2023-04-08T04:05:40;101085.66;;;6.07;100.00
48652;BME280;34442;52.362;-1.302;2023-04-08T04:08:05;101081.34;;;6.06;100.00
48652;BME280;34442;52.362;-1.302;2023-04-08T04:10:31;101088.16;;;6.09;100.00
48652;BME280;34442;52.362;-1.302;2023-04-08T04:12:56;101090.69;;;6.10;100.00
48652;BME280;34442;52.362;-1.302;2023-04-08T04:15:21;101093.38;;;6.10;100.00
48652;BME280;34442;52.362;-1.302;2023-04-08T04:17:47;101094.56;;;6.16;100.00
48652;BME280;34442;52.362;-1.302;2023-04-08T04:20:15;101088.41;;;6.24;100.00
48652;BME280;34442;52.362;-1.302;2023-04-08T04:22:40;101099.28;;;6.30;100.00
48652;BME280;34442;52.362;-1.302;2023-04-08T04:25:07;101097.81;;;6.36;100.00
48652;BME280;34442;52.362;-1.302;2023-04-08T04:27:32;101094.97;;;6.37;100.00
48652;BME280;34442;52.362;-1.302;2023-04-08T04:29:59;101100.19;;;6.47;100.00
48652;BME280;34442;52.362;-1.302;2023-04-08T04:32:24;101104.84;;;6.45;100.00
48652;BME280;34442;52.362;-1.302;2023-04-08T04:34:50;101100.66;;;6.34;100.00
48652;BME280;34442;52.362;-1.302;2023-04-08T04:37:15;101100.75;;;6.25;100.00
48652;BME280;34442;52.362;-1.302;2023-04-08T04:39:41;101102.41;;;6.17;100.00
48652;BME280;34442;52.362;-1.302;2023-04-08T04:42:06;101101.72;;;6.15;100.00
48652;BME280;34442;52.362;-1.302;2023-04-08T04:44:32;101104.59;;;6.22;100.00
48652;BME280;34442;52.362;-1.302;2023-04-08T04:46:57;101112.09;;;6.18;100.00
48652;BME280;34442;52.362;-1.302;2023-04-08T04:49:23;101111.41;;;6.16;100.00
48652;BME280;34442;52.362;-1.302;2023-04-08T04:51:48;101114.59;;;6.20;100.00
48652;BME280;34442;52.362;-1.302;2023-04-08T04:54:14;101115.28;;;6.22;100.00
48652;BME280;34442;52.362;-1.302;2023-04-08T04:56:39;101119.59;;;6.15;100.00
48652;BME280;34442;52.362;-1.302;2023-04-08T04:59:04;101119.06;;;6.11;100.00
48652;BME280;34442;52.362;-1.302;2023-04-08T05:01:30;101120.69;;;6.04;100.00
48652;BME280;34442;52.362;-1.302;2023-04-08T05:03:56;101119.84;;;6.04;100.00
48652;BME280;34442;52.362;-1.302;2023-04-08T05:06:24;101125.88;;;6.06;100.00
48652;BME280;34442;52.362;-1.302;2023-04-08T05:08:51;101127.84;;;6.04;100.00
48652;BME280;34442;52.362;-1.302;2023-04-08T05:11:17;101127.81;;;5.95;100.00
48652;BME280;34442;52.362;-1.302;2023-04-08T05:13:43;101128.81;;;5.94;100.00
48652;BME280;34442;52.362;-1.302;2023-04-08T05:16:09;101126.59;;;5.90;100.00
48652;BME280;34442;52.362;-1.302;2023-04-08T05:18:35;101129.41;;;5.88;100.00
48652;BME280;34442;52.362;-1.302;2023-04-08T05:21:01;101136.16;;;5.75;100.00
48652;BME280;34442;52.362;-1.302;2023-04-08T05:23:27;101133.78;;;5.71;100.00
48652;BME280;34442;52.362;-1.302;2023-04-08T05:25:52;101132.97;;;5.71;100.00
48652;BME280;34442;52.362;-1.302;2023-04-08T05:28:18;101143.84;;;5.78;100.00
48652;BME280;34442;52.362;-1.302;2023-04-08T05:30:50;101138.22;;;5.81;100.00
48652;BME280;34442;52.362;-1.302;2023-04-08T05:33:16;101137.38;;;5.80;100.00
48652;BME280;34442;52.362;-1.302;2023-04-08T05:35:41;101143.38;;;5.82;100.00
48652;BME280;34442;52.362;-1.302;2023-04-08T05:38:07;101145.03;;;5.83;100.00
48652;BME280;34442;52.362;-1.302;2023-04-08T05:40:32;101144.22;;;5.83;100.00
48652;BME280;34442;52.362;-1.302;2023-04-08T05:42:58;101154.22;;;5.81;100.00
48652;BME280;34442;52.362;-1.302;2023-04-08T05:45:23;101166.75;;;5.88;100.00
48652;BME280;34442;52.362;-1.302;2023-04-08T05:47:49;101163.25;;;5.88;100.00
48652;BME280;34442;52.362;-1.302;2023-04-08T05:50:14;101165.59;;;5.91;100.00
48652;BME280;34442;52.362;-1.302;2023-04-08T05:52:43;101161.50;;;5.96;100.00
48652;BME280;34442;52.362;-1.302;2023-04-08T05:55:10;101159.84;;;5.95;100.00
48652;BME280;34442;52.362;-1.302;2023-04-08T05:57:35;101160.72;;;6.04;100.00
48652;BME280;34442;52.362;-1.302;2023-04-08T06:00:01;101164.09;;;6.06;100.00
48652;BME280;34442;52.362;-1.302;2023-04-08T06:02:26;101165.91;;;6.06;100.00
48652;BME280;34442;52.362;-1.302;2023-04-08T06:04:52;101175.09;;;6.11;100.00
48652;BME280;34442;52.362;-1.302;2023-04-08T06:07:17;101173.97;;;6.14;100.00
48652;BME280;34442;52.362;-1.302;2023-04-08T06:09:43;101180.81;;;6.16;100.00
48652;BME280;34442;52.362;-1.302;2023-04-08T06:12:08;101186.84;;;6.18;100.00
48652;BME280;34442;52.362;-1.302;2023-04-08T06:14:33;101183.00;;;6.21;100.00
48652;BME280;34442;52.362;-1.302;2023-04-08T06:16:59;101191.91;;;6.30;100.00
48652;BME280;34442;52.362;-1.302;2023-04-08T06:19:24;101189.38;;;6.28;100.00
48652;BME280;34442;52.362;-1.302;2023-04-08T06:21:50;101186.13;;;6.42;100.00
48652;BME280;34442;52.362;-1.302;2023-04-08T06:24:16;101185.69;;;6.55;100.00
48652;BME280;34442;52.362;-1.302;2023-04-08T06:26:41;101198.56;;;6.60;100.00
48652;BME280;34442;52.362;-1.302;2023-04-08T06:29:07;101192.75;;;6.64;100.00
48652;BME280;34442;52.362;-1.302;2023-04-08T06:31:33;101195.63;;;6.71;100.00
48652;BME280;34442;52.362;-1.302;2023-04-08T06:33:59;101189.28;;;6.80;100.00
48652;BME280;34442;52.362;-1.302;2023-04-08T06:36:24;101201.84;;;6.88;100.00
48652;BME280;34442;52.362;-1.302;2023-04-08T06:38:50;101196.00;;;6.92;100.00
48652;BME280;34442;52.362;-1.302;2023-04-08T06:41:15;101195.19;;;7.00;100.00
48652;BME280;34442;52.362;-1.302;2023-04-08T06:43:41;101200.38;;;7.02;100.00
48652;BME280;34442;52.362;-1.302;2023-04-08T06:46:06;101198.56;;;7.10;100.00
48652;BME280;34442;52.362;-1.302;2023-04-08T06:48:32;101203.59;;;7.21;100.00
48652;BME280;34442;52.362;-1.302;2023-04-08T06:50:59;101202.28;;;7.26;100.00
48652;BME280;34442;52.362;-1.302;2023-04-08T06:53:26;101201.28;;;7.35;100.00
48652;BME280;34442;52.362;-1.302;2023-04-08T06:55:53;101214.16;;;7.39;100.00
48652;BME280;34442;52.362;-1.302;2023-04-08T06:58:19;101213.31;;;7.47;100.00
48652;BME280;34442;52.362;-1.302;2023-04-08T07:00:44;101209.00;;;7.54;100.00
48652;BME280;34442;52.362;-1.302;2023-04-08T07:03:10;101207.47;;;7.60;100.00
48652;BME280;34442;52.362;-1.302;2023-04-08T07:05:38;101207.81;;;7.57;100.00
48652;BME280;34442;52.362;-1.302;2023-04-08T07:08:04;101216.19;;;7.70;100.00
48652;BME280;34442;52.362;-1.302;2023-04-08T07:10:30;101209.16;;;7.69;100.00
48652;BME280;34442;52.362;-1.302;2023-04-08T07:12:56;101213.00;;;7.66;100.00
48652;BME280;34442;52.362;-1.302;2023-04-08T07:15:21;101213.00;;;7.83;100.00
48652;BME280;34442;52.362;-1.302;2023-04-08T07:17:47;101210.47;;;7.97;100.00
48652;BME280;34442;52.362;-1.302;2023-04-08T07:20:12;101215.16;;;8.12;100.00
48652;BME280;34442;52.362;-1.302;2023-04-08T07:22:41;101217.31;;;8.25;100.00
48652;BME280;34442;52.362;-1.302;2023-04-08T07:25:06;101212.25;;;8.30;100.00
48652;BME280;34442;52.362;-1.302;2023-04-08T07:27:33;101223.00;;;8.21;100.00
48652;BME280;34442;52.362;-1.302;2023-04-08T07:29:59;101226.84;;;8.27;100.00
48652;BME280;34442;52.362;-1.302;2023-04-08T07:32:24;101229.88;;;8.40;100.00
48652;BME280;34442;52.362;-1.302;2023-04-08T07:34:50;101233.16;;;8.51;100.00
48652;BME280;34442;52.362;-1.302;2023-04-08T07:37:15;101230.84;;;8.48;100.00
48652;BME280;34442;52.362;-1.302;2023-04-08T07:39:42;101237.56;;;8.27;100.00
48652;BME280;34442;52.362;-1.302;2023-04-08T07:42:07;101240.91;;;8.29;100.00
48652;BME280;34442;52.362;-1.302;2023-04-08T07:44:32;101239.72;;;8.32;100.00
48652;BME280;34442;52.362;-1.302;2023-04-08T07:46:58;101244.91;;;8.33;100.00
48652;BME280;34442;52.362;-1.302;2023-04-08T07:49:23;101244.59;;;8.28;100.00
48652;BME280;34442;52.362;-1.302;2023-04-08T07:51:49;101242.94;;;8.27;100.00
48652;BME280;34442;52.362;-1.302;2023-04-08T07:54:14;101250.78;;;8.37;100.00
48652;BME280;34442;52.362;-1.302;2023-04-08T07:56:42;101251.78;;;8.44;100.00
48652;BME280;34442;52.362;-1.302;2023-04-08T07:59:09;101250.28;;;8.41;100.00
48652;BME280;34442;52.362;-1.302;2023-04-08T08:01:35;101255.28;;;8.53;100.00
48652;BME280;34442;52.362;-1.302;2023-04-08T08:04:00;101264.25;;;8.76;100.00
48652;BME280;34442;52.362;-1.302;2023-04-08T08:06:26;101266.59;;;8.79;100.00
48652;BME280;34442;52.362;-1.302;2023-04-08T08:08:52;101267.88;;;8.91;100.00
48652;BME280;34442;52.362;-1.302;2023-04-08T08:11:17;101276.94;;;8.90;100.00
48652;BME280;34442;52.362;-1.302;2023-04-08T08:13:43;101271.06;;;8.95;100.00
48652;BME280;34442;52.362;-1.302;2023-04-08T08:16:08;101274.06;;;8.92;100.00
48652;BME280;34442;52.362;-1.302;2023-04-08T08:18:36;101276.25;;;8.88;100.00
48652;BME280;34442;52.362;-1.302;2023-04-08T08:21:01;101281.81;;;8.87;100.00
48652;BME280;34442;52.362;-1.302;2023-04-08T08:23:27;101275.28;;;8.89;100.00
48652;BME280;34442;52.362;-1.302;2023-04-08T08:26:04;101282.88;;;9.09;100.00
48652;BME280;34442;52.362;-1.302;2023-04-08T08:28:31;101282.38;;;9.13;100.00
48652;BME280;34442;52.362;-1.302;2023-04-08T08:30:56;101278.75;;;9.29;100.00
48652;BME280;34442;52.362;-1.302;2023-04-08T08:33:23;101286.91;;;9.44;100.00
48652;BME280;34442;52.362;-1.302;2023-04-08T08:35:48;101282.38;;;9.44;100.00
48652;BME280;34442;52.362;-1.302;2023-04-08T08:38:14;101281.88;;;9.41;100.00
48652;BME280;34442;52.362;-1.302;2023-04-08T08:40:42;101279.03;;;9.42;100.00
48652;BME280;34442;52.362;-1.302;2023-04-08T08:43:08;101282.22;;;9.69;100.00
48652;BME280;34442;52.362;-1.302;2023-04-08T08:45:40;101293.03;;;9.84;100.00
48652;BME280;34442;52.362;-1.302;2023-04-08T08:48:06;101289.69;;;9.82;100.00
48652;BME280;34442;52.362;-1.302;2023-04-08T08:50:35;101295.81;;;9.90;100.00
48652;BME280;34442;52.362;-1.302;2023-04-08T08:53:01;101294.78;;;9.91;100.00
48652;BME280;34442;52.362;-1.302;2023-04-08T08:55:29;101306.56;;;9.90;100.00
48652;BME280;34442;52.362;-1.302;2023-04-08T08:57:55;101296.09;;;9.95;100.00
48652;BME280;34442;52.362;-1.302;2023-04-08T09:00:34;101305.72;;;10.13;100.00
48652;BME280;34442;52.362;-1.302;2023-04-08T09:03:22;101298.16;;;10.16;100.00
48652;BME280;34442;52.362;-1.302;2023-04-08T09:05:55;101303.63;;;10.23;100.00
48652;BME280;34442;52.362;-1.302;2023-04-08T09:08:30;101301.47;;;10.18;100.00
48652;BME280;34442;52.362;-1.302;2023-04-08T09:13:35;101304.94;;;10.27;100.00
48652;BME280;34442;52.362;-1.302;2023-04-08T09:16:06;101306.72;;;10.35;100.00
48652;BME280;34442;52.362;-1.302;2023-04-08T09:18:33;101293.97;;;10.52;100.00
48652;BME280;34442;52.362;-1.302;2023-04-08T09:21:00;101297.31;;;10.54;100.00
48652;BME280;34442;52.362;-1.302;2023-04-08T09:26:21;101304.47;;;10.91;100.00
48652;BME280;34442;52.362;-1.302;2023-04-08T09:31:25;101293.94;;;11.26;100.00
48652;BME280;34442;52.362;-1.302;2023-04-08T09:33:54;101299.72;;;11.08;100.00
48652;BME280;34442;52.362;-1.302;2023-04-08T09:36:20;101302.03;;;11.26;100.00
48652;BME280;34442;52.362;-1.302;2023-04-08T09:38:46;101305.47;;;11.56;100.00
48652;BME280;34442;52.362;-1.302;2023-04-08T09:41:14;101308.38;;;11.76;100.00
48652;BME280;34442;52.362;-1.302;2023-04-08T09:43:47;101305.44;;;11.71;100.00
48652;BME280;34442;52.362;-1.302;2023-04-08T09:46:15;101306.13;;;11.94;100.00
48652;BME280;34442;52.362;-1.302;2023-04-08T09:48:49;101302.97;;;11.90;100.00
48652;BME280;34442;52.362;-1.302;2023-04-08T09:51:16;101294.09;;;11.97;100.00
48652;BME280;34442;52.362;-1.302;2023-04-08T09:53:49;101301.22;;;12.04;100.00
48652;BME280;34442;52.362;-1.302;2023-04-08T09:56:18;101307.28;;;12.06;100.00
48652;BME280;34442;52.362;-1.302;2023-04-08T09:59:02;101309.03;;;12.21;100.00
48652;BME280;34442;52.362;-1.302;2023-04-08T10:01:38;101307.25;;;12.28;100.00
48652;BME280;34442;52.362;-1.302;2023-04-08T10:04:07;101303.56;;;12.35;100.00
48652;BME280;34442;52.362;-1.302;2023-04-08T10:06:35;101304.16;;;12.09;100.00
48652;BME280;34442;52.362;-1.302;2023-04-08T10:09:01;101304.81;;;12.11;100.00
48652;BME280;34442;52.362;-1.302;2023-04-08T10:11:29;101296.41;;;12.21;100.00
48652;BME280;34442;52.362;-1.302;2023-04-08T10:13:55;101301.78;;;12.21;100.00
48652;BME280;34442;52.362;-1.302;2023-04-08T10:16:22;101298.75;;;12.59;100.00
48652;BME280;34442;52.362;-1.302;2023-04-08T10:18:50;101295.13;;;12.73;100.00
48652;BME280;34442;52.362;-1.302;2023-04-08T10:21:39;101289.97;;;12.78;100.00
48652;BME280;34442;52.362;-1.302;2023-04-08T10:24:12;101279.91;;;13.00;100.00
48652;BME280;34442;52.362;-1.302;2023-04-08T10:26:39;101285.97;;;13.09;100.00
48652;BME280;34442;52.362;-1.302;2023-04-08T10:31:50;101286.00;;;13.15;100.00
48652;BME280;34442;52.362;-1.302;2023-04-08T10:34:20;101297.72;;;13.29;100.00
48652;BME280;34442;52.362;-1.302;2023-04-08T10:36:47;101295.69;;;13.38;100.00
48652;BME280;34442;52.362;-1.302;2023-04-08T10:39:16;101296.53;;;13.52;100.00
48652;BME280;34442;52.362;-1.302;2023-04-08T10:41:46;101304.94;;;13.70;100.00
48652;BME280;34442;52.362;-1.302;2023-04-08T10:44:15;101298.22;;;13.46;100.00
48652;BME280;34442;52.362;-1.302;2023-04-08T10:46:42;101295.66;;;13.31;100.00
48652;BME280;34442;52.362;-1.302;2023-04-08T10:49:07;101301.34;;;13.50;100.00
48652;BME280;34442;52.362;-1.302;2023-04-08T10:51:33;101297.53;;;13.31;100.00
48652;BME280;34442;52.362;-1.302;2023-04-08T10:54:07;101295.44;;;13.33;96.81
48652;BME280;34442;52.362;-1.302;2023-04-08T10:56:34;101302.34;;;13.42;99.39
48652;BME280;34442;52.362;-1.302;2023-04-08T10:59:00;101298.13;;;13.26;98.10
48652;BME280;34442;52.362;-1.302;2023-04-08T11:01:26;101292.94;;;13.31;98.79
48652;BME280;34442;52.362;-1.302;2023-04-08T11:03:52;101293.69;;;13.67;99.26
48652;BME280;34442;52.362;-1.302;2023-04-08T11:06:17;101294.53;;;13.80;98.31
48652;BME280;34442;52.362;-1.302;2023-04-08T11:08:44;101288.47;;;13.65;97.04
48652;BME280;34442;52.362;-1.302;2023-04-08T11:11:09;101290.19;;;13.93;95.51
48652;BME280;34442;52.362;-1.302;2023-04-08T11:13:41;101286.25;;;13.95;91.47
48652;BME280;34442;52.362;-1.302;2023-04-08T11:16:08;101282.50;;;14.03;94.51
48652;BME280;34442;52.362;-1.302;2023-04-08T11:18:35;101279.19;;;14.01;94.60
48652;BME280;34442;52.362;-1.302;2023-04-08T11:21:01;101279.59;;;14.24;94.21
48652;BME280;34442;52.362;-1.302;2023-04-08T11:23:27;101282.50;;;14.29;93.22
48652;BME280;34442;52.362;-1.302;2023-04-08T11:25:52;101281.88;;;14.14;93.37
48652;BME280;34442;52.362;-1.302;2023-04-08T11:28:18;101272.09;;;14.39;92.96
48652;BME280;34442;52.362;-1.302;2023-04-08T11:30:45;101272.31;;;14.51;91.91
48652;BME280;34442;52.362;-1.302;2023-04-08T11:33:12;101275.63;;;14.67;89.73
48652;BME280;34442;52.362;-1.302;2023-04-08T11:35:42;101270.22;;;14.60;89.54
48652;BME280;34442;52.362;-1.302;2023-04-08T11:38:08;101274.78;;;14.66;90.73
48652;BME280;34442;52.362;-1.302;2023-04-08T11:40:34;101263.31;;;14.77;89.91
48652;BME280;34442;52.362;-1.302;2023-04-08T11:43:11;101268.09;;;14.75;86.40
48652;BME280;34442;52.362;-1.302;2023-04-08T11:45:38;101266.81;;;14.98;89.23
48652;BME280;34442;52.362;-1.302;2023-04-08T11:48:12;101260.75;;;15.02;85.09
48652;BME280;34442;52.362;-1.302;2023-04-08T11:50:38;101257.03;;;14.83;87.51
48652;BME280;34442;52.362;-1.302;2023-04-08T11:53:25;101254.00;;;14.53;71.02
48652;BME280;34442;52.362;-1.302;2023-04-08T11:55:51;101259.59;;;14.38;89.37
48652;BME280;34442;52.362;-1.302;2023-04-08T11:58:16;101261.91;;;14.42;89.42
48652;BME280;34442;52.362;-1.302;2023-04-08T12:00:42;101252.31;;;14.46;88.61
48652;BME280;34442;52.362;-1.302;2023-04-08T12:03:09;101252.53;;;14.51;89.03
48652;BME280;34442;52.362;-1.302;2023-04-08T12:05:34;101248.78;;;14.58;87.05
48652;BME280;34442;52.362;-1.302;2023-04-08T12:08:00;101256.50;;;14.55;87.53
48652;BME280;34442;52.362;-1.302;2023-04-08T12:10:27;101251.06;;;14.61;86.65
48652;BME280;34442;52.362;-1.302;2023-04-08T12:12:52;101255.25;;;14.51;86.88
48652;BME280;34442;52.362;-1.302;2023-04-08T12:15:18;101248.78;;;14.52;85.63
48652;BME280;34442;52.362;-1.302;2023-04-08T12:17:43;101250.03;;;14.56;83.50
48652;BME280;34442;52.362;-1.302;2023-04-08T12:20:10;101254.41;;;14.50;80.95
48652;BME280;34442;52.362;-1.302;2023-04-08T12:22:36;101254.44;;;14.24;82.43
48652;BME280;34442;52.362;-1.302;2023-04-08T12:25:02;101261.50;;;14.05;82.99
48652;BME280;34442;52.362;-1.302;2023-04-08T12:27:31;101253.78;;;14.61;71.54
48652;BME280;34442;52.362;-1.302;2023-04-08T12:29:58;101258.78;;;14.18;78.83
48652;BME280;34442;52.362;-1.302;2023-04-08T12:32:24;101260.25;;;14.14;79.77
48652;BME280;34442;52.362;-1.302;2023-04-08T12:34:50;101260.25;;;13.94;81.27
48652;BME280;34442;52.362;-1.302;2023-04-08T12:37:16;101258.16;;;14.09;79.49
48652;BME280;34442;52.362;-1.302;2023-04-08T12:39:41;101261.91;;;14.22;80.10
48652;BME280;34442;52.362;-1.302;2023-04-08T12:42:06;101260.25;;;14.21;78.59
48652;BME280;34442;52.362;-1.302;2023-04-08T12:44:32;101258.38;;;14.01;80.49
48652;BME280;34442;52.362;-1.302;2023-04-08T12:46:57;101254.41;;;13.97;81.17
48652;BME280;34442;52.362;-1.302;2023-04-08T12:49:24;101258.56;;;14.06;81.71